sensor_id;sensor_type;location;lat;lon;timestamp;P1;durP1;ratioP1;P2;durP2;ratioP2
66143;SDS011;52947;50.842;6.084;2022-11-15T00:02:23;10.23;;;5.93;;
66143;SDS011;52947;50.842;6.084;2022-11-15T00:05:09;10.73;;;5.22;;
66143;SDS011;52947;50.842;6.084;2022-11-15T00:07:57;9.73;;;5.28;;
66143;SDS011;52947;50.842;6.084;2022-11-15T00:10:53;8.43;;;4.90;;
66143;SDS011;52947;50.842;6.084;2022-11-15T00:13:40;9.68;;;4.63;;
66143;SDS011;52947;50.842;6.084;2022-11-15T00:16:26;8.45;;;4.60;;
66143;SDS011;52947;50.842;6.084;2022-11-15T00:19:13;8.98;;;4.55;;
66143;SDS011;52947;50.842;6.084;2022-11-15T00:21:59;9.75;;;4.45;;
66143;SDS011;52947;50.842;6.084;2022-11-15T00:24:46;9.05;;;4.70;;
66143;SDS011;52947;50.842;6.084;2022-11-15T00:27:33;11.90;;;4.07;;
66143;SDS011;52947;50.842;6.084;2022-11-15T00:30:19;10.63;;;4.50;;
66143;SDS011;52947;50.842;6.084;2022-11-15T00:33:06;10.13;;;5.00;;
66143;SDS011;52947;50.842;6.084;2022-11-15T00:35:53;8.27;;;4.55;;
66143;SDS011;52947;50.842;6.084;2022-11-15T00:38:39;10.98;;;4.60;;
66143;SDS011;52947;50.842;6.084;2022-11-15T00:41:27;10.60;;;4.38;;
66143;SDS011;52947;50.842;6.084;2022-11-15T00:44:14;9.82;;;4.20;;
66143;SDS011;52947;50.842;6.084;2022-11-15T00:47:00;9.63;;;4.35;;
66143;SDS011;52947;50.842;6.084;2022-11-15T00:49:46;6.97;;;3.60;;
66143;SDS011;52947;50.842;6.084;2022-11-15T00:52:33;6.18;;;3.75;;
66143;SDS011;52947;50.842;6.084;2022-11-15T00:55:19;5.93;;;3.92;;
66143;SDS011;52947;50.842;6.084;2022-11-15T00:58:07;5.32;;;3.17;;
66143;SDS011;52947;50.842;6.084;2022-11-15T01:00:54;10.77;;;4.00;;
66143;SDS011;52947;50.842;6.084;2022-11-15T01:03:40;5.40;;;3.30;;
66143;SDS011;52947;50.842;6.084;2022-11-15T01:06:27;5.40;;;3.13;;
66143;SDS011;52947;50.842;6.084;2022-11-15T01:09:14;9.85;;;3.58;;
66143;SDS011;52947;50.842;6.084;2022-11-15T01:12:00;6.65;;;3.22;;
66143;SDS011;52947;50.842;6.084;2022-11-15T01:14:49;6.45;;;3.13;;
66143;SDS011;52947;50.842;6.084;2022-11-15T01:17:35;5.68;;;3.33;;
66143;SDS011;52947;50.842;6.084;2022-11-15T01:20:21;7.38;;;3.03;;
66143;SDS011;52947;50.842;6.084;2022-11-15T01:23:08;5.80;;;3.22;;
66143;SDS011;52947;50.842;6.084;2022-11-15T01:25:58;7.53;;;3.25;;
66143;SDS011;52947;50.842;6.084;2022-11-15T01:28:44;5.40;;;3.08;;
66143;SDS011;52947;50.842;6.084;2022-11-15T01:31:32;6.10;;;3.50;;
66143;SDS011;52947;50.842;6.084;2022-11-15T01:34:18;7.70;;;3.60;;
66143;SDS011;52947;50.842;6.084;2022-11-15T01:37:05;5.18;;;3.10;;
66143;SDS011;52947;50.842;6.084;2022-11-15T01:39:51;6.68;;;3.22;;
66143;SDS011;52947;50.842;6.084;2022-11-15T01:42:37;8.18;;;3.35;;
66143;SDS011;52947;50.842;6.084;2022-11-15T01:45:23;5.22;;;3.15;;
66143;SDS011;52947;50.842;6.084;2022-11-15T01:48:11;5.57;;;2.53;;
66143;SDS011;52947;50.842;6.084;2022-11-15T01:50:58;5.05;;;2.90;;
66143;SDS011;52947;50.842;6.084;2022-11-15T01:56:36;6.82;;;3.17;;
66143;SDS011;52947;50.842;6.084;2022-11-15T01:59:27;6.43;;;3.03;;
66143;SDS011;52947;50.842;6.084;2022-11-15T02:02:14;6.25;;;3.17;;
66143;SDS011;52947;50.842;6.084;2022-11-15T02:05:02;5.95;;;2.90;;
66143;SDS011;52947;50.842;6.084;2022-11-15T02:07:49;6.25;;;3.10;;
66143;SDS011;52947;50.842;6.084;2022-11-15T02:10:36;8.40;;;2.90;;
66143;SDS011;52947;50.842;6.084;2022-11-15T02:13:22;5.40;;;2.80;;
66143;SDS011;52947;50.842;6.084;2022-11-15T02:16:19;6.05;;;2.63;;
66143;SDS011;52947;50.842;6.084;2022-11-15T02:19:17;4.78;;;3.03;;
66143;SDS011;52947;50.842;6.084;2022-11-15T02:22:26;8.15;;;3.08;;
66143;SDS011;52947;50.842;6.084;2022-11-15T02:25:25;6.00;;;2.95;;
66143;SDS011;52947;50.842;6.084;2022-11-15T02:28:31;5.80;;;2.88;;
66143;SDS011;52947;50.842;6.084;2022-11-15T02:31:29;5.13;;;3.13;;
66143;SDS011;52947;50.842;6.084;2022-11-15T02:34:24;4.47;;;2.83;;
66143;SDS011;52947;50.842;6.084;2022-11-15T02:37:21;7.20;;;3.30;;
66143;SDS011;52947;50.842;6.084;2022-11-15T02:40:17;5.95;;;3.08;;
66143;SDS011;52947;50.842;6.084;2022-11-15T02:43:14;4.90;;;2.95;;
66143;SDS011;52947;50.842;6.084;2022-11-15T02:46:27;5.82;;;3.40;;
66143;SDS011;52947;50.842;6.084;2022-11-15T02:49:38;8.45;;;3.65;;
66143;SDS011;52947;50.842;6.084;2022-11-15T02:52:27;6.03;;;3.20;;
66143;SDS011;52947;50.842;6.084;2022-11-15T02:55:27;6.97;;;3.55;;
66143;SDS011;52947;50.842;6.084;2022-11-15T02:58:19;4.80;;;3.10;;
66143;SDS011;52947;50.842;6.084;2022-11-15T03:01:20;8.02;;;3.42;;
66143;SDS011;52947;50.842;6.084;2022-11-15T03:04:22;5.68;;;3.65;;
66143;SDS011;52947;50.842;6.084;2022-11-15T03:07:20;7.40;;;4.03;;
66143;SDS011;52947;50.842;6.084;2022-11-15T03:10:12;6.68;;;3.90;;
66143;SDS011;52947;50.842;6.084;2022-11-15T03:13:06;7.15;;;3.95;;
66143;SDS011;52947;50.842;6.084;2022-11-15T03:16:03;8.27;;;3.93;;
66143;SDS011;52947;50.842;6.084;2022-11-15T03:18:55;5.63;;;3.95;;
66143;SDS011;52947;50.842;6.084;2022-11-15T03:21:46;5.55;;;3.50;;
66143;SDS011;52947;50.842;6.084;2022-11-15T03:24:34;5.65;;;3.35;;
66143;SDS011;52947;50.842;6.084;2022-11-15T03:27:24;9.13;;;3.60;;
66143;SDS011;52947;50.842;6.084;2022-11-15T03:30:15;5.88;;;3.60;;
66143;SDS011;52947;50.842;6.084;2022-11-15T03:33:03;4.60;;;3.17;;
66143;SDS011;52947;50.842;6.084;2022-11-15T03:35:50;6.30;;;2.80;;
66143;SDS011;52947;50.842;6.084;2022-11-15T03:38:40;5.20;;;3.07;;
66143;SDS011;52947;50.842;6.084;2022-11-15T03:41:28;5.65;;;3.20;;
66143;SDS011;52947;50.842;6.084;2022-11-15T03:44:23;4.95;;;3.22;;
66143;SDS011;52947;50.842;6.084;2022-11-15T03:47:18;6.82;;;2.95;;
66143;SDS011;52947;50.842;6.084;2022-11-15T03:50:08;3.50;;;2.60;;
66143;SDS011;52947;50.842;6.084;2022-11-15T03:52:57;4.35;;;2.42;;
66143;SDS011;52947;50.842;6.084;2022-11-15T03:55:46;3.75;;;2.28;;
66143;SDS011;52947;50.842;6.084;2022-11-15T03:58:32;4.57;;;2.53;;
66143;SDS011;52947;50.842;6.084;2022-11-15T04:01:18;3.25;;;2.30;;
66143;SDS011;52947;50.842;6.084;2022-11-15T04:04:05;3.33;;;2.38;;
66143;SDS011;52947;50.842;6.084;2022-11-15T04:06:51;2.92;;;2.20;;
66143;SDS011;52947;50.842;6.084;2022-11-15T04:09:37;3.60;;;2.03;;
66143;SDS011;52947;50.842;6.084;2022-11-15T04:12:45;2.58;;;2.05;;
66143;SDS011;52947;50.842;6.084;2022-11-15T04:15:32;2.60;;;1.85;;
66143;SDS011;52947;50.842;6.084;2022-11-15T04:18:19;2.35;;;2.15;;
66143;SDS011;52947;50.842;6.084;2022-11-15T04:21:05;2.08;;;1.55;;
66143;SDS011;52947;50.842;6.084;2022-11-15T04:24:10;6.03;;;2.10;;
66143;SDS011;52947;50.842;6.084;2022-11-15T04:26:59;2.42;;;1.60;;
66143;SDS011;52947;50.842;6.084;2022-11-15T04:29:48;2.75;;;1.83;;
66143;SDS011;52947;50.842;6.084;2022-11-15T04:32:34;2.22;;;1.63;;
66143;SDS011;52947;50.842;6.084;2022-11-15T04:35:20;4.20;;;2.00;;
66143;SDS011;52947;50.842;6.084;2022-11-15T04:38:07;2.05;;;1.50;;
66143;SDS011;52947;50.842;6.084;2022-11-15T04:40:54;2.28;;;1.70;;
66143;SDS011;52947;50.842;6.084;2022-11-15T04:43:41;2.75;;;1.60;;
66143;SDS011;52947;50.842;6.084;2022-11-15T04:46:29;3.97;;;1.40;;
66143;SDS011;52947;50.842;6.084;2022-11-15T04:49:15;1.25;;;1.15;;
66143;SDS011;52947;50.842;6.084;2022-11-15T04:52:02;3.58;;;1.60;;
66143;SDS011;52947;50.842;6.084;2022-11-15T04:54:49;2.20;;;1.30;;
66143;SDS011;52947;50.842;6.084;2022-11-15T04:57:35;1.10;;;1.00;;
66143;SDS011;52947;50.842;6.084;2022-11-15T05:00:21;1.30;;;1.13;;
66143;SDS011;52947;50.842;6.084;2022-11-15T05:03:10;1.63;;;1.00;;
66143;SDS011;52947;50.842;6.084;2022-11-15T05:06:13;1.58;;;1.17;;
66143;SDS011;52947;50.842;6.084;2022-11-15T05:08:59;1.35;;;1.20;;
66143;SDS011;52947;50.842;6.084;2022-11-15T05:11:46;1.20;;;1.10;;
66143;SDS011;52947;50.842;6.084;2022-11-15T05:14:32;1.38;;;1.10;;
66143;SDS011;52947;50.842;6.084;2022-11-15T05:17:19;1.48;;;1.00;;
66143;SDS011;52947;50.842;6.084;2022-11-15T05:20:07;1.83;;;1.10;;
66143;SDS011;52947;50.842;6.084;2022-11-15T05:22:54;0.85;;;0.85;;
66143;SDS011;52947;50.842;6.084;2022-11-15T05:25:41;1.73;;;1.25;;
66143;SDS011;52947;50.842;6.084;2022-11-15T05:28:27;1.77;;;1.10;;
66143;SDS011;52947;50.842;6.084;2022-11-15T05:31:14;1.98;;;1.20;;
66143;SDS011;52947;50.842;6.084;2022-11-15T05:34:01;0.82;;;0.82;;
66143;SDS011;52947;50.842;6.084;2022-11-15T05:36:51;2.28;;;1.50;;
66143;SDS011;52947;50.842;6.084;2022-11-15T05:39:38;2.88;;;0.75;;
66143;SDS011;52947;50.842;6.084;2022-11-15T05:42:24;0.90;;;0.73;;
66143;SDS011;52947;50.842;6.084;2022-11-15T05:45:12;0.80;;;0.80;;
66143;SDS011;52947;50.842;6.084;2022-11-15T05:48:00;0.93;;;0.75;;
66143;SDS011;52947;50.842;6.084;2022-11-15T05:50:50;0.95;;;0.60;;
66143;SDS011;52947;50.842;6.084;2022-11-15T05:53:38;1.33;;;0.88;;
66143;SDS011;52947;50.842;6.084;2022-11-15T05:56:25;2.67;;;0.95;;
66143;SDS011;52947;50.842;6.084;2022-11-15T05:59:11;0.93;;;0.70;;
66143;SDS011;52947;50.842;6.084;2022-11-15T06:01:58;1.20;;;1.08;;
66143;SDS011;52947;50.842;6.084;2022-11-15T06:04:45;0.68;;;0.68;;
66143;SDS011;52947;50.842;6.084;2022-11-15T06:07:31;0.80;;;0.57;;
66143;SDS011;52947;50.842;6.084;2022-11-15T06:10:19;1.58;;;0.88;;
66143;SDS011;52947;50.842;6.084;2022-11-15T06:13:05;0.90;;;0.70;;
66143;SDS011;52947;50.842;6.084;2022-11-15T06:15:52;3.03;;;0.90;;
66143;SDS011;52947;50.842;6.084;2022-11-15T06:18:41;5.13;;;1.10;;
66143;SDS011;52947;50.842;6.084;2022-11-15T06:21:28;1.95;;;0.90;;
66143;SDS011;52947;50.842;6.084;2022-11-15T06:24:14;0.65;;;0.65;;
66143;SDS011;52947;50.842;6.084;2022-11-15T06:27:02;1.98;;;0.80;;
66143;SDS011;52947;50.842;6.084;2022-11-15T06:29:48;0.65;;;0.65;;
66143;SDS011;52947;50.842;6.084;2022-11-15T06:32:34;0.90;;;0.57;;
66143;SDS011;52947;50.842;6.084;2022-11-15T06:35:21;0.70;;;0.70;;
66143;SDS011;52947;50.842;6.084;2022-11-15T06:38:07;0.95;;;0.75;;
66143;SDS011;52947;50.842;6.084;2022-11-15T06:40:55;1.42;;;1.20;;
66143;SDS011;52947;50.842;6.084;2022-11-15T06:43:49;1.08;;;0.70;;
66143;SDS011;52947;50.842;6.084;2022-11-15T06:46:35;0.95;;;0.82;;
66143;SDS011;52947;50.842;6.084;2022-11-15T06:49:21;0.50;;;0.50;;
66143;SDS011;52947;50.842;6.084;2022-11-15T06:52:07;0.63;;;0.50;;
66143;SDS011;52947;50.842;6.084;2022-11-15T06:54:53;0.75;;;0.60;;
66143;SDS011;52947;50.842;6.084;2022-11-15T06:57:45;0.60;;;0.60;;
66143;SDS011;52947;50.842;6.084;2022-11-15T07:00:34;2.85;;;0.70;;
66143;SDS011;52947;50.842;6.084;2022-11-15T07:03:20;1.20;;;0.70;;
66143;SDS011;52947;50.842;6.084;2022-11-15T07:06:06;0.80;;;0.80;;
66143;SDS011;52947;50.842;6.084;2022-11-15T07:08:53;0.82;;;0.55;;
66143;SDS011;52947;50.842;6.084;2022-11-15T07:11:39;0.70;;;0.70;;
66143;SDS011;52947;50.842;6.084;2022-11-15T07:14:26;0.63;;;0.63;;
66143;SDS011;52947;50.842;6.084;2022-11-15T07:17:14;2.92;;;0.60;;
66143;SDS011;52947;50.842;6.084;2022-11-15T07:20:00;1.15;;;0.80;;
66143;SDS011;52947;50.842;6.084;2022-11-15T07:22:46;2.63;;;0.70;;
66143;SDS011;52947;50.842;6.084;2022-11-15T07:25:32;0.63;;;0.63;;
66143;SDS011;52947;50.842;6.084;2022-11-15T07:28:19;1.27;;;0.80;;
66143;SDS011;52947;50.842;6.084;2022-11-15T07:31:06;1.63;;;1.00;;
66143;SDS011;52947;50.842;6.084;2022-11-15T07:33:55;3.57;;;1.07;;
66143;SDS011;52947;50.842;6.084;2022-11-15T07:36:41;2.63;;;1.10;;
66143;SDS011;52947;50.842;6.084;2022-11-15T07:39:27;1.95;;;1.20;;
66143;SDS011;52947;50.842;6.084;2022-11-15T07:42:13;3.40;;;1.30;;
66143;SDS011;52947;50.842;6.084;2022-11-15T07:45:17;1.10;;;1.00;;
66143;SDS011;52947;50.842;6.084;2022-11-15T07:48:03;2.40;;;1.40;;
66143;SDS011;52947;50.842;6.084;2022-11-15T07:50:51;2.53;;;1.20;;
66143;SDS011;52947;50.842;6.084;2022-11-15T07:53:37;2.78;;;1.20;;
66143;SDS011;52947;50.842;6.084;2022-11-15T07:56:23;1.70;;;1.02;;
66143;SDS011;52947;50.842;6.084;2022-11-15T07:59:10;2.03;;;1.20;;
66143;SDS011;52947;50.842;6.084;2022-11-15T08:01:56;3.47;;;1.27;;
66143;SDS011;52947;50.842;6.084;2022-11-15T08:04:43;2.53;;;1.00;;
66143;SDS011;52947;50.842;6.084;2022-11-15T08:07:31;8.25;;;1.45;;
66143;SDS011;52947;50.842;6.084;2022-11-15T08:10:17;3.15;;;1.42;;
66143;SDS011;52947;50.842;6.084;2022-11-15T08:13:06;2.22;;;0.95;;
66143;SDS011;52947;50.842;6.084;2022-11-15T08:18:43;4.72;;;1.17;;
66143;SDS011;52947;50.842;6.084;2022-11-15T08:21:29;5.93;;;1.67;;
66143;SDS011;52947;50.842;6.084;2022-11-15T08:24:17;3.72;;;1.38;;
66143;SDS011;52947;50.842;6.084;2022-11-15T08:27:03;3.45;;;1.10;;
66143;SDS011;52947;50.842;6.084;2022-11-15T08:29:49;3.03;;;1.30;;
66143;SDS011;52947;50.842;6.084;2022-11-15T08:32:43;2.28;;;1.40;;
66143;SDS011;52947;50.842;6.084;2022-11-15T08:35:30;2.78;;;1.08;;
66143;SDS011;52947;50.842;6.084;2022-11-15T08:38:16;1.90;;;1.23;;
66143;SDS011;52947;50.842;6.084;2022-11-15T08:41:04;2.72;;;1.15;;
66143;SDS011;52947;50.842;6.084;2022-11-15T08:43:51;4.53;;;1.08;;
66143;SDS011;52947;50.842;6.084;2022-11-15T08:46:37;3.83;;;1.10;;
66143;SDS011;52947;50.842;6.084;2022-11-15T08:49:24;3.30;;;1.30;;
66143;SDS011;52947;50.842;6.084;2022-11-15T08:52:10;3.83;;;1.20;;
66143;SDS011;52947;50.842;6.084;2022-11-15T08:54:56;2.00;;;1.00;;
66143;SDS011;52947;50.842;6.084;2022-11-15T08:57:44;2.72;;;1.00;;
66143;SDS011;52947;50.842;6.084;2022-11-15T09:00:30;2.67;;;0.90;;
66143;SDS011;52947;50.842;6.084;2022-11-15T09:03:18;3.08;;;1.13;;
66143;SDS011;52947;50.842;6.084;2022-11-15T09:06:04;3.28;;;1.40;;
66143;SDS011;52947;50.842;6.084;2022-11-15T09:08:50;1.80;;;0.90;;
66143;SDS011;52947;50.842;6.084;2022-11-15T09:11:37;1.17;;;0.90;;
66143;SDS011;52947;50.842;6.084;2022-11-15T09:14:25;2.90;;;1.08;;
66143;SDS011;52947;50.842;6.084;2022-11-15T09:17:11;2.55;;;1.08;;
66143;SDS011;52947;50.842;6.084;2022-11-15T09:19:57;2.25;;;1.00;;
66143;SDS011;52947;50.842;6.084;2022-11-15T09:22:44;4.57;;;0.93;;
66143;SDS011;52947;50.842;6.084;2022-11-15T09:25:30;2.05;;;1.08;;
66143;SDS011;52947;50.842;6.084;2022-11-15T09:28:16;0.80;;;0.80;;
66143;SDS011;52947;50.842;6.084;2022-11-15T09:31:05;2.33;;;0.93;;
66143;SDS011;52947;50.842;6.084;2022-11-15T09:33:51;3.90;;;1.02;;
66143;SDS011;52947;50.842;6.084;2022-11-15T09:36:38;1.75;;;1.00;;
66143;SDS011;52947;50.842;6.084;2022-11-15T09:39:24;1.05;;;0.88;;
66143;SDS011;52947;50.842;6.084;2022-11-15T09:45:17;1.58;;;1.10;;
66143;SDS011;52947;50.842;6.084;2022-11-15T09:48:23;1.77;;;0.90;;
66143;SDS011;52947;50.842;6.084;2022-11-15T09:51:23;2.53;;;1.02;;
66143;SDS011;52947;50.842;6.084;2022-11-15T09:53:56;2.00;;;0.98;;
66143;SDS011;52947;50.842;6.084;2022-11-15T09:56:48;2.00;;;1.00;;
66143;SDS011;52947;50.842;6.084;2022-11-15T09:59:29;3.08;;;1.02;;
66143;SDS011;52947;50.842;6.084;2022-11-15T10:02:09;3.25;;;1.10;;
66143;SDS011;52947;50.842;6.084;2022-11-15T10:04:49;2.60;;;1.20;;
66143;SDS011;52947;50.842;6.084;2022-11-15T10:07:18;2.60;;;0.82;;
66143;SDS011;52947;50.842;6.084;2022-11-15T10:09:51;2.25;;;1.10;;
66143;SDS011;52947;50.842;6.084;2022-11-15T10:12:23;4.45;;;0.93;;
66143;SDS011;52947;50.842;6.084;2022-11-15T10:14:56;2.17;;;0.80;;
66143;SDS011;52947;50.842;6.084;2022-11-15T10:17:41;2.17;;;1.08;;
66143;SDS011;52947;50.842;6.084;2022-11-15T10:20:37;2.47;;;1.30;;
66143;SDS011;52947;50.842;6.084;2022-11-15T10:23:13;0.95;;;0.70;;
66143;SDS011;52947;50.842;6.084;2022-11-15T10:25:42;1.52;;;0.80;;
66143;SDS011;52947;50.842;6.084;2022-11-15T10:28:13;2.92;;;1.10;;
66143;SDS011;52947;50.842;6.084;2022-11-15T10:30:43;3.45;;;0.93;;
66143;SDS011;52947;50.842;6.084;2022-11-15T10:36:16;1.73;;;0.98;;
66143;SDS011;52947;50.842;6.084;2022-11-15T10:38:54;1.58;;;1.10;;
66143;SDS011;52947;50.842;6.084;2022-11-15T10:41:29;1.73;;;1.00;;
66143;SDS011;52947;50.842;6.084;2022-11-15T10:44:02;2.03;;;1.27;;
66143;SDS011;52947;50.842;6.084;2022-11-15T10:46:37;5.63;;;0.93;;
66143;SDS011;52947;50.842;6.084;2022-11-15T10:49:14;2.53;;;0.65;;
66143;SDS011;52947;50.842;6.084;2022-11-15T10:51:46;1.10;;;0.90;;
66143;SDS011;52947;50.842;6.084;2022-11-15T10:54:17;2.65;;;1.30;;
66143;SDS011;52947;50.842;6.084;2022-11-15T10:56:50;4.53;;;1.13;;
66143;SDS011;52947;50.842;6.084;2022-11-15T10:59:23;1.45;;;0.80;;
66143;SDS011;52947;50.842;6.084;2022-11-15T11:01:53;2.58;;;1.20;;
66143;SDS011;52947;50.842;6.084;2022-11-15T11:04:21;4.57;;;1.35;;
66143;SDS011;52947;50.842;6.084;2022-11-15T11:06:51;3.45;;;0.90;;
66143;SDS011;52947;50.842;6.084;2022-11-15T11:09:27;4.20;;;0.80;;
66143;SDS011;52947;50.842;6.084;2022-11-15T11:11:58;2.35;;;1.00;;
66143;SDS011;52947;50.842;6.084;2022-11-15T11:17:00;6.45;;;1.10;;
66143;SDS011;52947;50.842;6.084;2022-11-15T11:19:38;2.85;;;0.98;;
66143;SDS011;52947;50.842;6.084;2022-11-15T11:22:19;2.60;;;1.13;;
66143;SDS011;52947;50.842;6.084;2022-11-15T11:24:55;7.55;;;1.42;;
66143;SDS011;52947;50.842;6.084;2022-11-15T11:27:32;6.22;;;1.50;;
66143;SDS011;52947;50.842;6.084;2022-11-15T11:30:12;4.95;;;1.27;;
66143;SDS011;52947;50.842;6.084;2022-11-15T11:32:55;3.13;;;1.00;;
66143;SDS011;52947;50.842;6.084;2022-11-15T11:35:34;1.52;;;0.95;;
66143;SDS011;52947;50.842;6.084;2022-11-15T11:38:17;2.97;;;1.10;;
66143;SDS011;52947;50.842;6.084;2022-11-15T11:40:56;1.85;;;0.82;;
66143;SDS011;52947;50.842;6.084;2022-11-15T11:46:14;3.95;;;1.25;;
66143;SDS011;52947;50.842;6.084;2022-11-15T11:48:56;4.32;;;1.00;;
66143;SDS011;52947;50.842;6.084;2022-11-15T11:51:32;4.38;;;0.80;;
66143;SDS011;52947;50.842;6.084;2022-11-15T11:54:10;2.10;;;0.73;;
66143;SDS011;52947;50.842;6.084;2022-11-15T11:56:41;4.90;;;1.02;;
66143;SDS011;52947;50.842;6.084;2022-11-15T11:59:15;3.03;;;1.13;;
66143;SDS011;52947;50.842;6.084;2022-11-15T12:01:46;3.78;;;0.85;;
66143;SDS011;52947;50.842;6.084;2022-11-15T12:04:16;3.95;;;1.17;;
66143;SDS011;52947;50.842;6.084;2022-11-15T12:06:49;2.33;;;1.00;;
66143;SDS011;52947;50.842;6.084;2022-11-15T12:09:23;1.90;;;0.98;;
66143;SDS011;52947;50.842;6.084;2022-11-15T12:11:59;3.67;;;1.30;;
66143;SDS011;52947;50.842;6.084;2022-11-15T12:14:34;5.72;;;1.08;;
66143;SDS011;52947;50.842;6.084;2022-11-15T12:17:10;1.75;;;1.20;;
66143;SDS011;52947;50.842;6.084;2022-11-15T12:19:39;3.40;;;1.20;;
66143;SDS011;52947;50.842;6.084;2022-11-15T12:22:10;6.15;;;1.60;;
66143;SDS011;52947;50.842;6.084;2022-11-15T12:24:43;4.80;;;1.05;;
66143;SDS011;52947;50.842;6.084;2022-11-15T12:27:18;6.93;;;1.00;;
66143;SDS011;52947;50.842;6.084;2022-11-15T12:29:55;1.98;;;1.05;;
66143;SDS011;52947;50.842;6.084;2022-11-15T12:32:28;5.57;;;1.00;;
66143;SDS011;52947;50.842;6.084;2022-11-15T12:34:59;2.17;;;0.80;;
66143;SDS011;52947;50.842;6.084;2022-11-15T12:37:32;1.70;;;0.75;;
66143;SDS011;52947;50.842;6.084;2022-11-15T12:42:58;4.13;;;0.90;;
66143;SDS011;52947;50.842;6.084;2022-11-15T12:45:31;3.83;;;1.08;;
66143;SDS011;52947;50.842;6.084;2022-11-15T12:51:14;1.48;;;0.88;;
66143;SDS011;52947;50.842;6.084;2022-11-15T12:53:42;3.85;;;0.90;;
66143;SDS011;52947;50.842;6.084;2022-11-15T12:56:24;4.15;;;1.08;;
66143;SDS011;52947;50.842;6.084;2022-11-15T12:58:53;4.68;;;0.90;;
66143;SDS011;52947;50.842;6.084;2022-11-15T13:04:28;2.03;;;1.00;;
66143;SDS011;52947;50.842;6.084;2022-11-15T13:06:59;1.75;;;0.70;;
66143;SDS011;52947;50.842;6.084;2022-11-15T13:15:33;1.27;;;0.80;;
66143;SDS011;52947;50.842;6.084;2022-11-15T13:20:56;2.70;;;1.10;;
66143;SDS011;52947;50.842;6.084;2022-11-15T13:23:28;2.05;;;1.00;;
66143;SDS011;52947;50.842;6.084;2022-11-15T13:26:06;1.55;;;0.88;;
66143;SDS011;52947;50.842;6.084;2022-11-15T13:28:41;1.35;;;1.00;;
66143;SDS011;52947;50.842;6.084;2022-11-15T13:31:16;3.38;;;1.15;;
66143;SDS011;52947;50.842;6.084;2022-11-15T13:33:55;6.05;;;0.95;;
66143;SDS011;52947;50.842;6.084;2022-11-15T13:36:25;1.20;;;1.00;;
66143;SDS011;52947;50.842;6.084;2022-11-15T13:38:56;1.45;;;0.68;;
66143;SDS011;52947;50.842;6.084;2022-11-15T13:41:26;2.70;;;1.20;;
66143;SDS011;52947;50.842;6.084;2022-11-15T13:43:56;1.52;;;0.80;;
66143;SDS011;52947;50.842;6.084;2022-11-15T13:46:26;2.03;;;1.08;;
66143;SDS011;52947;50.842;6.084;2022-11-15T13:51:26;1.73;;;0.93;;
66143;SDS011;52947;50.842;6.084;2022-11-15T13:54:01;5.18;;;1.25;;
66143;SDS011;52947;50.842;6.084;2022-11-15T13:56:37;4.68;;;1.27;;
66143;SDS011;52947;50.842;6.084;2022-11-15T13:59:10;3.00;;;1.10;;
66143;SDS011;52947;50.842;6.084;2022-11-15T14:01:40;2.50;;;1.50;;
66143;SDS011;52947;50.842;6.084;2022-11-15T14:04:11;3.10;;;1.10;;
66143;SDS011;52947;50.842;6.084;2022-11-15T14:06:45;1.38;;;0.98;;
66143;SDS011;52947;50.842;6.084;2022-11-15T14:09:34;3.80;;;1.35;;
66143;SDS011;52947;50.842;6.084;2022-11-15T14:18:39;5.20;;;1.27;;
66143;SDS011;52947;50.842;6.084;2022-11-15T14:21:15;1.45;;;1.20;;
66143;SDS011;52947;50.842;6.084;2022-11-15T14:23:50;1.50;;;1.40;;
66143;SDS011;52947;50.842;6.084;2022-11-15T14:26:27;2.13;;;1.20;;
66143;SDS011;52947;50.842;6.084;2022-11-15T14:28:56;2.17;;;1.25;;
66143;SDS011;52947;50.842;6.084;2022-11-15T14:31:25;2.00;;;1.45;;
66143;SDS011;52947;50.842;6.084;2022-11-15T14:33:53;4.03;;;1.98;;
66143;SDS011;52947;50.842;6.084;2022-11-15T14:36:21;2.53;;;1.50;;
66143;SDS011;52947;50.842;6.084;2022-11-15T14:38:49;2.10;;;1.10;;
66143;SDS011;52947;50.842;6.084;2022-11-15T14:41:17;1.38;;;1.10;;
66143;SDS011;52947;50.842;6.084;2022-11-15T14:43:47;1.67;;;1.20;;
66143;SDS011;52947;50.842;6.084;2022-11-15T14:46:15;3.77;;;1.50;;
66143;SDS011;52947;50.842;6.084;2022-11-15T14:48:45;2.90;;;1.75;;
66143;SDS011;52947;50.842;6.084;2022-11-15T14:53:41;1.70;;;1.30;;
66143;SDS011;52947;50.842;6.084;2022-11-15T14:56:10;2.67;;;1.10;;
66143;SDS011;52947;50.842;6.084;2022-11-15T14:58:38;2.80;;;1.50;;
66143;SDS011;52947;50.842;6.084;2022-11-15T15:01:09;3.78;;;1.77;;
66143;SDS011;52947;50.842;6.084;2022-11-15T15:03:40;3.50;;;1.42;;
66143;SDS011;52947;50.842;6.084;2022-11-15T15:06:09;2.75;;;1.70;;
66143;SDS011;52947;50.842;6.084;2022-11-15T15:08:43;2.85;;;1.40;;
66143;SDS011;52947;50.842;6.084;2022-11-15T15:11:13;5.78;;;1.40;;
66143;SDS011;52947;50.842;6.084;2022-11-15T15:13:42;2.25;;;1.50;;
66143;SDS011;52947;50.842;6.084;2022-11-15T15:16:10;4.57;;;1.60;;
66143;SDS011;52947;50.842;6.084;2022-11-15T15:18:37;3.50;;;1.67;;
66143;SDS011;52947;50.842;6.084;2022-11-15T15:21:18;5.70;;;2.30;;
66143;SDS011;52947;50.842;6.084;2022-11-15T15:23:49;2.45;;;1.58;;
66143;SDS011;52947;50.842;6.084;2022-11-15T15:26:17;3.17;;;1.60;;
66143;SDS011;52947;50.842;6.084;2022-11-15T15:28:45;2.65;;;1.83;;
66143;SDS011;52947;50.842;6.084;2022-11-15T15:31:14;2.83;;;1.58;;
66143;SDS011;52947;50.842;6.084;2022-11-15T15:33:42;4.20;;;1.70;;
66143;SDS011;52947;50.842;6.084;2022-11-15T15:36:10;2.22;;;1.48;;
66143;SDS011;52947;50.842;6.084;2022-11-15T15:38:40;4.57;;;1.50;;
66143;SDS011;52947;50.842;6.084;2022-11-15T15:41:09;3.70;;;1.42;;
66143;SDS011;52947;50.842;6.084;2022-11-15T15:43:37;2.30;;;1.40;;
66143;SDS011;52947;50.842;6.084;2022-11-15T15:46:07;3.72;;;1.20;;
66143;SDS011;52947;50.842;6.084;2022-11-15T15:48:37;1.98;;;1.52;;
66143;SDS011;52947;50.842;6.084;2022-11-15T15:51:05;2.17;;;1.60;;
66143;SDS011;52947;50.842;6.084;2022-11-15T15:58:41;4.38;;;2.03;;
66143;SDS011;52947;50.842;6.084;2022-11-15T16:01:09;3.45;;;1.50;;
66143;SDS011;52947;50.842;6.084;2022-11-15T16:03:37;3.35;;;1.75;;
66143;SDS011;52947;50.842;6.084;2022-11-15T16:09:04;3.45;;;1.65;;
66143;SDS011;52947;50.842;6.084;2022-11-15T16:11:42;3.13;;;1.80;;
66143;SDS011;52947;50.842;6.084;2022-11-15T16:14:10;2.60;;;2.05;;
66143;SDS011;52947;50.842;6.084;2022-11-15T16:16:39;3.88;;;1.30;;
66143;SDS011;52947;50.842;6.084;2022-11-15T16:19:07;2.33;;;1.70;;
66143;SDS011;52947;50.842;6.084;2022-11-15T16:21:37;2.63;;;1.80;;
66143;SDS011;52947;50.842;6.084;2022-11-15T16:24:06;2.08;;;1.67;;
66143;SDS011;52947;50.842;6.084;2022-11-15T16:26:34;4.57;;;1.90;;
66143;SDS011;52947;50.842;6.084;2022-11-15T16:29:03;1.85;;;1.60;;
66143;SDS011;52947;50.842;6.084;2022-11-15T16:31:33;4.78;;;2.00;;
66143;SDS011;52947;50.842;6.084;2022-11-15T16:34:00;3.88;;;2.00;;
66143;SDS011;52947;50.842;6.084;2022-11-15T16:36:29;5.90;;;3.70;;
66143;SDS011;52947;50.842;6.084;2022-11-15T16:38:59;4.03;;;2.50;;
66143;SDS011;52947;50.842;6.084;2022-11-15T16:41:31;8.25;;;2.60;;
66143;SDS011;52947;50.842;6.084;2022-11-15T16:43:59;3.63;;;1.77;;
66143;SDS011;52947;50.842;6.084;2022-11-15T16:46:27;4.18;;;2.08;;
66143;SDS011;52947;50.842;6.084;2022-11-15T16:48:55;3.58;;;1.80;;
66143;SDS011;52947;50.842;6.084;2022-11-15T16:51:23;2.78;;;1.40;;
66143;SDS011;52947;50.842;6.084;2022-11-15T16:53:51;4.00;;;1.70;;
66143;SDS011;52947;50.842;6.084;2022-11-15T16:56:21;3.10;;;2.20;;
66143;SDS011;52947;50.842;6.084;2022-11-15T16:58:53;5.13;;;1.80;;
66143;SDS011;52947;50.842;6.084;2022-11-15T17:01:24;3.30;;;1.98;;
66143;SDS011;52947;50.842;6.084;2022-11-15T17:03:54;2.90;;;1.88;;
66143;SDS011;52947;50.842;6.084;2022-11-15T17:06:22;3.87;;;1.93;;
66143;SDS011;52947;50.842;6.084;2022-11-15T17:08:52;3.30;;;1.80;;
66143;SDS011;52947;50.842;6.084;2022-11-15T17:11:21;2.55;;;1.80;;